Time;durP1;ratioP1;P1;durP2;ratioP2;P2;SDS_P1;SDS_P2;PMS_P1;PMS_P2;Temp;Humidity;BMP_temperature;BMP_pressure;BME280_temperature;BME280_humidity;BME280_pressure;Samples;Min_cycle;Max_cycle;Signal;HPM_P1;HPM_P2
2023/04/24 00:01:19;;;;;;;2.50;2.40;;;23.50;45.30;;;;;;4917791;29;20443;-84
2023/04/24 00:03:47;;;;;;;2.40;2.20;;;23.50;45.50;;;;;;4916755;29;20441;-85
2023/04/24 00:06:16;;;;;;;2.83;2.50;;;23.50;45.40;;;;;;4911509;29;20967;-85
2023/04/24 00:08:44;;;;;;;2.17;2.07;;;23.50;45.60;;;;;;4920257;29;20420;-85
2023/04/24 00:11:14;;;;;;;2.97;2.50;;;23.50;45.60;;;;;;4917922;29;20539;-85
2023/04/24 00:13:42;;;;;;;2.67;2.47;;;23.40;45.50;;;;;;4919298;29;20453;-85
2023/04/24 00:16:10;;;;;;;2.43;2.33;;;23.50;45.70;;;;;;4917177;29;20518;-85
2023/04/24 00:18:39;;;;;;;2.10;1.87;;;23.50;45.80;;;;;;4919697;29;20457;-85
2023/04/24 00:21:10;;;;;;;2.50;2.20;;;23.40;45.50;;;;;;4915661;29;20557;-85
2023/04/24 00:23:38;;;;;;;4.90;2.30;;;23.40;45.80;;;;;;4919291;29;20457;-85
2023/04/24 00:26:07;;;;;;;2.37;2.17;;;23.30;45.60;;;;;;4922087;29;20545;-84
2023/04/24 00:28:39;;;;;;;4.07;1.80;;;23.40;45.80;;;;;;4922087;29;20485;-84
2023/04/24 00:31:10;;;;;;;2.10;2.00;;;23.30;45.80;;;;;;4921909;29;20482;-85
2023/04/24 00:33:39;;;;;;;2.10;2.00;;;23.30;45.80;;;;;;4924646;29;20459;-84
2023/04/24 00:36:08;;;;;;;1.93;1.83;;;23.40;45.80;;;;;;4924189;29;20431;-84
2023/04/24 00:38:36;;;;;;;1.87;1.77;;;23.30;45.50;;;;;;4931457;29;20487;-83
2023/04/24 00:41:04;;;;;;;2.33;1.80;;;23.30;45.60;;;;;;4929031;29;20495;-84
2023/04/24 00:43:32;;;;;;;1.60;1.50;;;23.20;45.70;;;;;;4913626;29;20458;-83
2023/04/24 00:46:02;;;;;;;4.20;2.27;;;23.20;45.60;;;;;;4919775;29;20441;-84
2023/04/24 00:48:30;;;;;;;1.57;1.47;;;23.20;45.60;;;;;;4917230;29;20488;-85
2023/04/24 00:50:59;;;;;;;1.83;1.53;;;23.10;45.40;;;;;;4917981;29;20487;-85
2023/04/24 00:53:28;;;;;;;1.63;1.53;;;23.20;45.60;;;;;;4922196;29;20453;-84
2023/04/24 00:55:56;;;;;;;2.43;1.80;;;23.10;45.50;;;;;;4920059;29;20427;-84
2023/04/24 00:58:28;;;;;;;1.70;1.60;;;23.10;45.60;;;;;;4917793;29;20480;-83
2023/04/24 01:00:57;;;;;;;1.37;1.27;;;23.10;45.60;;;;;;4921460;29;20559;-84
2023/04/24 01:03:30;;;;;;;1.20;1.20;;;23.00;45.60;;;;;;4925011;29;20434;-85
2023/04/24 01:05:59;;;;;;;1.53;1.43;;;23.00;45.50;;;;;;4921131;29;20448;-87
2023/04/24 01:08:27;;;;;;;1.37;1.37;;;23.00;45.60;;;;;;4919735;29;20431;-85
2023/04/24 01:10:55;;;;;;;1.27;1.27;;;23.00;45.40;;;;;;4922417;29;20486;-86
2023/04/24 01:13:24;;;;;;;2.80;1.50;;;23.00;45.40;;;;;;4923417;29;20447;-86
2023/04/24 01:15:52;;;;;;;1.60;1.50;;;22.90;45.40;;;;;;4921081;29;20540;-85
2023/04/24 01:18:21;;;;;;;2.70;1.30;;;22.90;45.40;;;;;;4922078;29;20428;-85
2023/04/24 01:20:50;;;;;;;3.80;1.73;;;22.90;45.50;;;;;;4921265;29;20462;-86
2023/04/24 01:23:20;;;;;;;1.37;1.27;;;22.90;45.40;;;;;;4916865;29;20452;-86
2023/04/24 01:25:48;;;;;;;1.10;1.10;;;22.80;45.30;;;;;;4914250;29;20457;-85
2023/04/24 01:28:16;;;;;;;2.10;1.10;;;22.80;45.30;;;;;;4920710;29;20546;-86
2023/04/24 01:30:44;;;;;;;1.47;1.37;;;22.80;45.40;;;;;;4927602;29;20499;-85
2023/04/24 01:33:12;;;;;;;4.10;1.33;;;22.80;45.30;;;;;;4918393;29;20873;-86
2023/04/24 01:35:41;;;;;;;1.30;1.20;;;22.70;45.30;;;;;;4922575;29;21005;-85
2023/04/24 01:38:09;;;;;;;3.40;1.37;;;22.70;45.30;;;;;;4916973;29;20449;-86
2023/04/24 01:40:38;;;;;;;1.20;1.10;;;22.60;45.30;;;;;;4919067;29;20472;-86
2023/04/24 01:43:06;;;;;;;1.23;1.23;;;22.70;45.30;;;;;;4920736;29;20448;-86
2023/04/24 01:45:35;;;;;;;1.10;1.10;;;22.70;45.30;;;;;;4921980;29;20569;-85
2023/04/24 01:48:03;;;;;;;1.40;1.00;;;22.70;45.50;;;;;;4922583;29;20942;-86
2023/04/24 01:50:31;;;;;;;1.17;1.17;;;22.70;45.40;;;;;;4921734;29;20479;-86
2023/04/24 01:52:59;;;;;;;1.40;1.40;;;22.60;45.20;;;;;;4921793;29;20486;-85
2023/04/24 01:55:28;;;;;;;1.23;1.17;;;22.70;45.20;;;;;;4922073;29;20423;-85
2023/04/24 01:57:57;;;;;;;1.17;1.07;;;22.60;45.10;;;;;;4921618;29;20437;-84
2023/04/24 02:00:25;;;;;;;1.03;1.03;;;22.50;45.10;;;;;;4923940;29;20471;-85
2023/04/24 02:02:53;;;;;;;1.10;1.10;;;22.60;45.40;;;;;;4922810;28;20445;-86
2023/04/24 02:05:22;;;;;;;0.97;0.97;;;22.60;45.40;;;;;;4928852;29;20456;-83
2023/04/24 02:07:50;;;;;;;1.10;1.10;;;22.50;45.20;;;;;;4926202;29;20452;-82
2023/04/24 02:10:18;;;;;;;1.53;0.90;;;22.60;45.30;;;;;;4924357;29;20480;-83
2023/04/24 02:12:46;;;;;;;1.53;1.10;;;22.50;45.30;;;;;;4926187;29;20478;-82
2023/04/24 02:15:16;;;;;;;1.33;1.00;;;22.50;45.40;;;;;;4925745;29;20428;-82
2023/04/24 02:17:44;;;;;;;1.00;1.00;;;22.50;45.40;;;;;;4926049;29;20459;-83
2023/04/24 02:20:12;;;;;;;3.67;0.93;;;22.50;45.40;;;;;;4922989;29;20477;-83
2023/04/24 02:22:40;;;;;;;1.73;1.30;;;22.50;45.30;;;;;;4920273;29;20449;-83
2023/04/24 02:25:09;;;;;;;1.23;1.13;;;22.50;45.40;;;;;;4922653;29;20475;-83
2023/04/24 02:27:38;;;;;;;2.37;1.30;;;22.50;45.40;;;;;;4923592;29;20471;-83
2023/04/24 02:30:08;;;;;;;1.40;1.30;;;22.50;45.40;;;;;;4923485;29;20479;-83
2023/04/24 02:32:38;;;;;;;3.43;1.30;;;22.50;45.40;;;;;;4922245;29;20472;-83
2023/04/24 02:35:07;;;;;;;1.27;1.27;;;22.50;46.20;;;;;;4923417;29;20445;-84
2023/04/24 02:37:35;;;;;;;2.70;1.33;;;22.40;45.50;;;;;;4923229;29;20449;-82
2023/04/24 02:40:05;;;;;;;4.00;1.43;;;22.40;45.50;;;;;;4923613;29;20502;-83
2023/04/24 02:42:33;;;;;;;1.30;1.10;;;22.30;45.40;;;;;;4922602;29;20452;-83
2023/04/24 02:45:01;;;;;;;1.53;1.27;;;22.30;45.50;;;;;;4926079;29;20459;-83
2023/04/24 02:47:30;;;;;;;1.17;1.13;;;22.30;45.50;;;;;;4926431;29;20455;-83
2023/04/24 02:49:59;;;;;;;1.67;1.23;;;22.30;45.60;;;;;;4925741;29;20449;-83
2023/04/24 02:52:27;;;;;;;1.83;1.43;;;22.30;45.60;;;;;;4926708;29;20544;-83
2023/04/24 02:54:55;;;;;;;3.80;1.50;;;22.30;45.40;;;;;;4922146;29;20450;-84
2023/04/24 02:57:23;;;;;;;1.57;1.47;;;22.20;45.30;;;;;;4924750;29;20453;-83
2023/04/24 02:59:51;;;;;;;1.50;1.50;;;22.20;45.40;;;;;;4926198;29;20455;-82
2023/04/24 03:02:20;;;;;;;1.37;1.27;;;22.20;45.60;;;;;;4921517;29;20508;-83
2023/04/24 03:04:48;;;;;;;1.47;1.00;;;22.20;45.60;;;;;;4923285;29;20452;-82
2023/04/24 03:07:21;;;;;;;2.13;1.60;;;22.10;45.40;;;;;;4926269;29;20532;-84
2023/04/24 03:09:50;;;;;;;1.47;1.37;;;22.10;45.50;;;;;;4923508;29;20548;-83
2023/04/24 03:12:19;;;;;;;1.80;1.70;;;22.10;45.60;;;;;;4920036;29;20465;-83
2023/04/24 03:14:47;;;;;;;1.30;1.30;;;22.10;45.50;;;;;;4925477;29;20460;-84
2023/04/24 03:17:15;;;;;;;1.23;1.10;;;22.10;45.70;;;;;;4927030;29;20472;-83
2023/04/24 03:19:43;;;;;;;1.40;1.40;;;22.10;45.70;;;;;;4927658;29;20463;-83
2023/04/24 03:22:12;;;;;;;1.33;1.33;;;22.10;45.50;;;;;;4927707;29;20484;-84
2023/04/24 03:24:41;;;;;;;1.33;1.23;;;22.10;45.60;;;;;;4927370;29;20484;-83
2023/04/24 03:27:11;;;;;;;2.00;1.90;;;22.00;45.50;;;;;;4921159;29;20461;-83
2023/04/24 03:29:39;;;;;;;1.33;1.30;;;22.00;45.50;;;;;;4927424;29;20460;-84
2023/04/24 03:32:08;;;;;;;1.80;1.50;;;22.10;45.60;;;;;;4923181;29;20485;-83
2023/04/24 03:34:36;;;;;;;2.53;1.30;;;22.00;45.50;;;;;;4919781;29;20462;-83
2023/04/24 03:37:04;;;;;;;1.80;1.70;;;22.00;45.40;;;;;;4919328;29;20480;-84
2023/04/24 03:39:33;;;;;;;1.70;1.60;;;22.00;45.40;;;;;;4919301;29;20539;-84
2023/04/24 03:42:03;;;;;;;1.30;1.30;;;22.00;45.50;;;;;;4919658;29;20540;-84
2023/04/24 03:44:32;;;;;;;2.00;1.70;;;22.10;45.50;;;;;;4914104;29;20463;-84
2023/04/24 03:47:00;;;;;;;1.40;1.30;;;22.00;45.30;;;;;;4920485;29;20457;-84
2023/04/24 03:49:28;;;;;;;1.23;1.20;;;22.10;45.30;;;;;;4914020;29;20492;-83
2023/04/24 03:51:56;;;;;;;1.67;1.50;;;22.00;45.30;;;;;;4918719;29;20504;-84
2023/04/24 03:54:24;;;;;;;1.40;1.30;;;22.00;45.30;;;;;;4921608;29;20449;-82
2023/04/24 03:56:52;;;;;;;1.60;1.60;;;22.00;45.40;;;;;;4923212;29;20522;-81
2023/04/24 03:59:21;;;;;;;1.30;1.30;;;22.00;45.40;;;;;;4924497;29;20454;-81
2023/04/24 04:01:49;;;;;;;1.60;1.50;;;22.00;45.30;;;;;;4931055;29;20473;-81
2023/04/24 04:04:17;;;;;;;1.33;1.33;;;22.00;45.40;;;;;;4929937;29;20441;-81
2023/04/24 04:06:50;;;;;;;1.40;1.30;;;22.00;45.20;;;;;;4930661;29;20464;-81
2023/04/24 04:09:19;;;;;;;1.47;1.40;;;22.00;45.30;;;;;;4930936;29;20453;-81
2023/04/24 04:11:47;;;;;;;1.40;1.30;;;21.90;45.30;;;;;;4926590;29;20477;-81
2023/04/24 04:14:15;;;;;;;1.53;1.43;;;21.90;45.30;;;;;;4930389;29;20479;-81
2023/04/24 04:16:45;;;;;;;1.30;1.30;;;21.90;45.30;;;;;;4930012;29;20455;-81
2023/04/24 04:19:13;;;;;;;2.90;1.43;;;21.90;45.40;;;;;;4931204;29;20453;-81
2023/04/24 04:21:41;;;;;;;1.60;1.50;;;21.90;45.40;;;;;;4929473;29;20482;-81
2023/04/24 04:24:19;;;;;;;1.33;1.33;;;21.90;45.20;;;;;;4931089;29;20440;-81
2023/04/24 04:26:47;;;;;;;3.00;1.40;;;21.90;45.40;;;;;;4928337;29;20524;-81
2023/04/24 04:29:24;;;;;;;1.50;1.40;;;21.90;45.40;;;;;;4930617;29;20428;-81
2023/04/24 04:31:54;;;;;;;3.33;1.43;;;21.90;45.20;;;;;;4930605;29;20480;-81
2023/04/24 04:34:23;;;;;;;1.27;1.27;;;21.80;45.50;;;;;;4925357;29;20529;-81
2023/04/24 04:36:51;;;;;;;1.47;1.37;;;21.90;45.50;;;;;;4927898;29;20476;-81
2023/04/24 04:39:31;;;;;;;1.80;1.60;;;21.80;45.40;;;;;;4927205;29;20453;-81
2023/04/24 04:42:04;;;;;;;1.17;1.17;;;21.80;45.40;;;;;;4926459;29;20483;-81
2023/04/24 04:44:32;;;;;;;1.67;1.57;;;21.80;45.40;;;;;;4929733;29;20447;-81
2023/04/24 04:47:05;;;;;;;2.20;1.40;;;21.80;45.40;;;;;;4920861;29;20504;-81
2023/04/24 04:49:34;;;;;;;1.73;1.63;;;21.80;45.40;;;;;;4928513;29;20449;-81
2023/04/24 04:52:02;;;;;;;3.90;1.80;;;21.80;45.60;;;;;;4924454;29;20488;-81
2023/04/24 04:54:33;;;;;;;1.63;1.50;;;21.80;45.50;;;;;;4927434;29;20503;-81
2023/04/24 04:57:02;;;;;;;1.83;1.73;;;21.70;45.60;;;;;;4923174;29;20528;-81
2023/04/24 04:59:31;;;;;;;1.90;1.80;;;21.70;45.40;;;;;;4925043;28;20457;-81
2023/04/24 05:02:01;;;;;;;1.83;1.73;;;21.70;45.50;;;;;;4916295;29;20500;-81
2023/04/24 05:04:31;;;;;;;1.83;1.73;;;21.70;45.70;;;;;;4916914;29;20452;-81
2023/04/24 05:07:01;;;;;;;1.50;1.40;;;21.70;45.90;;;;;;4916765;29;20457;-81
2023/04/24 05:09:29;;;;;;;2.50;1.80;;;21.60;45.60;;;;;;4915709;29;20464;-81
2023/04/24 05:11:57;;;;;;;1.83;1.73;;;21.70;45.80;;;;;;4917318;29;20475;-81
2023/04/24 05:14:25;;;;;;;3.03;1.73;;;21.60;45.60;;;;;;4913158;29;20551;-81
2023/04/24 05:16:53;;;;;;;2.07;1.97;;;21.60;45.70;;;;;;4918943;29;20518;-81
2023/04/24 05:19:26;;;;;;;2.10;1.90;;;21.60;45.60;;;;;;4919269;29;20449;-81
2023/04/24 05:21:58;;;;;;;1.70;1.60;;;21.70;45.80;;;;;;4919492;29;20496;-81
2023/04/24 05:24:26;;;;;;;1.73;1.63;;;21.60;45.60;;;;;;4919188;29;20560;-81
2023/04/24 05:26:55;;;;;;;3.37;1.70;;;21.60;45.90;;;;;;4916971;29;20456;-81
2023/04/24 05:29:23;;;;;;;1.47;1.37;;;21.70;45.80;;;;;;4916484;29;20487;-81
2023/04/24 05:31:52;;;;;;;1.67;1.57;;;21.70;45.80;;;;;;4919169;29;20479;-82
2023/04/24 05:34:22;;;;;;;1.83;1.67;;;21.70;45.80;;;;;;4918592;29;20476;-81
2023/04/24 05:36:51;;;;;;;3.10;2.20;;;21.70;45.60;;;;;;4920345;29;20455;-81
2023/04/24 05:39:21;;;;;;;2.20;2.10;;;21.60;45.70;;;;;;4920650;29;20477;-81
2023/04/24 05:41:51;;;;;;;3.37;1.90;;;21.70;45.70;;;;;;4920324;29;20479;-81
2023/04/24 05:44:19;;;;;;;2.20;1.97;;;21.60;45.60;;;;;;4912116;29;20453;-81
2023/04/24 05:46:47;;;;;;;1.87;1.77;;;21.60;45.70;;;;;;4920699;29;20459;-81
2023/04/24 05:49:15;;;;;;;1.90;1.80;;;21.70;45.80;;;;;;4926546;29;20445;-81
2023/04/24 05:51:43;;;;;;;1.93;1.80;;;21.70;45.60;;;;;;4921817;29;20472;-81
2023/04/24 05:54:12;;;;;;;3.60;1.40;;;21.70;45.80;;;;;;4924331;29;20474;-81
2023/04/24 05:56:41;;;;;;;1.90;1.80;;;21.70;45.80;;;;;;4920432;29;20472;-81
2023/04/24 05:59:10;;;;;;;3.40;1.63;;;21.70;45.70;;;;;;4922712;29;20462;-81
2023/04/24 06:01:37;;;;;;;2.00;1.90;;;21.70;45.70;;;;;;4921508;29;20536;-81
2023/04/24 06:04:06;;;;;;;1.70;1.60;;;21.80;45.80;;;;;;4924507;29;20485;-81
2023/04/24 06:06:35;;;;;;;2.23;2.07;;;21.80;45.70;;;;;;4923046;29;20457;-81
2023/04/24 06:09:04;;;;;;;2.20;2.10;;;21.80;45.80;;;;;;4925133;29;20981;-81
2023/04/24 06:11:32;;;;;;;1.80;1.70;;;21.80;45.60;;;;;;4924719;29;20479;-81
2023/04/24 06:14:02;;;;;;;2.10;1.90;;;21.80;45.70;;;;;;4925070;29;20571;-81
2023/04/24 06:16:31;;;;;;;2.50;2.30;;;21.80;45.80;;;;;;4927261;29;20461;-81
2023/04/24 06:19:00;;;;;;;1.90;1.80;;;21.80;45.80;;;;;;4926260;29;20465;-81
2023/04/24 06:21:28;;;;;;;2.03;1.93;;;21.80;45.70;;;;;;4929450;29;20468;-81
2023/04/24 06:23:57;;;;;;;2.53;2.33;;;21.80;45.70;;;;;;4929432;29;20468;-81
2023/04/24 06:26:26;;;;;;;2.10;2.00;;;21.80;45.80;;;;;;4930220;29;20479;-81
2023/04/24 06:28:54;;;;;;;1.97;1.87;;;21.80;45.70;;;;;;4929476;29;20461;-81
2023/04/24 06:31:24;;;;;;;2.50;2.40;;;21.80;45.60;;;;;;4930619;29;20567;-81
2023/04/24 06:33:52;;;;;;;1.97;1.87;;;21.80;45.70;;;;;;4929702;29;20477;-81
2023/04/24 06:36:20;;;;;;;2.97;2.30;;;21.80;45.80;;;;;;4930228;29;20459;-81
2023/04/24 06:38:48;;;;;;;2.10;2.00;;;21.80;45.80;;;;;;4922667;29;20464;-81
2023/04/24 06:41:16;;;;;;;2.57;2.37;;;21.80;45.50;;;;;;4925467;29;20559;-81
2023/04/24 06:43:45;;;;;;;4.03;2.43;;;21.80;45.70;;;;;;4931426;29;20544;-81
2023/04/24 06:46:13;;;;;;;1.87;1.77;;;21.80;45.80;;;;;;4931402;29;20473;-81
2023/04/24 06:48:42;;;;;;;3.80;2.03;;;21.80;45.70;;;;;;4930916;29;20437;-81
2023/04/24 06:51:11;;;;;;;2.13;2.03;;;21.80;45.70;;;;;;4927795;29;20544;-81
2023/04/24 06:57:03;;;;;;;2.30;2.20;;;21.80;45.70;;;;;;4922113;29;20453;-80
2023/04/24 06:59:31;;;;;;;2.30;2.10;;;21.90;45.70;;;;;;4929667;29;20441;-80
2023/04/24 07:02:00;;;;;;;2.33;2.23;;;21.90;45.60;;;;;;4928177;29;20469;-80
2023/04/24 07:04:30;;;;;;;2.00;1.90;;;22.00;45.60;;;;;;4928233;29;20528;-81
2023/04/24 07:06:59;;;;;;;2.73;2.53;;;22.00;45.50;;;;;;4928413;29;20453;-81
2023/04/24 07:09:30;;;;;;;3.40;2.40;;;22.00;45.40;;;;;;4917989;29;20556;-81
2023/04/24 07:11:59;;;;;;;2.57;2.47;;;22.00;45.40;;;;;;4927006;29;20492;-81
2023/04/24 07:14:27;;;;;;;2.80;2.60;;;22.00;45.40;;;;;;4925461;29;20447;-83
2023/04/24 07:16:56;;;;;;;2.90;2.70;;;21.90;45.50;;;;;;4925556;29;20522;-82
2023/04/24 07:19:24;;;;;;;3.57;3.27;;;21.90;45.60;;;;;;4925873;29;20449;-83
2023/04/24 07:21:54;;;;;;;3.97;3.63;;;21.90;45.60;;;;;;4921961;29;20555;-80
2023/04/24 07:24:22;;;;;;;3.40;3.20;;;21.90;45.60;;;;;;4917416;29;20543;-82
2023/04/24 07:26:55;;;;;;;3.43;3.20;;;21.90;45.80;;;;;;4928056;29;20449;-82
2023/04/24 07:29:23;;;;;;;3.53;3.13;;;21.90;45.60;;;;;;4921112;29;20434;-80
2023/04/24 07:31:51;;;;;;;5.50;3.57;;;21.90;45.60;;;;;;4915365;29;20484;-80
2023/04/24 07:34:19;;;;;;;4.83;3.47;;;21.90;45.70;;;;;;4921337;29;20515;-81
2023/04/24 07:36:48;;;;;;;3.87;3.57;;;21.90;45.70;;;;;;4923119;29;20427;-80
2023/04/24 07:39:18;;;;;;;3.93;3.63;;;22.00;45.60;;;;;;4919285;29;20457;-81
2023/04/24 07:41:46;;;;;;;3.53;3.23;;;22.00;45.50;;;;;;4916570;29;20462;-79
2023/04/24 07:44:14;;;;;;;6.63;3.87;;;22.00;45.50;;;;;;4912634;29;20445;-81
2023/04/24 07:46:42;;;;;;;3.70;3.50;;;22.00;45.50;;;;;;4919954;29;20861;-80
2023/04/24 07:49:10;;;;;;;3.87;3.60;;;22.10;45.40;;;;;;4920451;29;20449;-77
2023/04/24 07:51:41;;;;;;;3.70;3.40;;;22.10;45.40;;;;;;4918190;29;20460;-79
2023/04/24 07:54:10;;;;;;;4.07;3.77;;;22.10;45.40;;;;;;4918070;29;20444;-77
2023/04/24 07:56:40;;;;;;;3.47;3.27;;;22.00;45.40;;;;;;4931073;28;20453;-78
2023/04/24 07:59:09;;;;;;;4.03;3.60;;;22.00;45.50;;;;;;4916256;29;20475;-80
2023/04/24 08:01:37;;;;;;;4.20;3.80;;;22.10;45.60;;;;;;4915298;29;20486;-78
2023/04/24 08:04:05;;;;;;;3.90;3.57;;;22.10;45.60;;;;;;4917683;29;20453;-78
2023/04/24 08:06:34;;;;;;;5.67;4.03;;;22.10;45.60;;;;;;4916168;29;20453;-77
2023/04/24 08:09:02;;;;;;;5.60;3.97;;;22.10;45.30;;;;;;4915246;29;20540;-78
2023/04/24 08:11:30;;;;;;;3.93;3.63;;;22.10;45.50;;;;;;4917292;29;20561;-79
2023/04/24 08:13:59;;;;;;;4.07;3.67;;;22.10;45.50;;;;;;4916401;29;20480;-79
2023/04/24 08:16:28;;;;;;;4.50;4.10;;;22.10;45.40;;;;;;4916716;29;20560;-81
2023/04/24 08:18:56;;;;;;;4.70;3.87;;;22.10;45.40;;;;;;4915381;29;20469;-80
2023/04/24 08:21:26;;;;;;;4.23;3.83;;;22.10;45.50;;;;;;4916130;29;20456;-78
2023/04/24 08:23:54;;;;;;;3.53;3.33;;;22.10;45.30;;;;;;4915341;29;20441;-80
2023/04/24 08:26:22;;;;;;;3.90;3.60;;;22.10;45.40;;;;;;4906775;29;20456;-80
2023/04/24 08:28:50;;;;;;;3.80;3.50;;;22.10;45.40;;;;;;4912958;29;20456;-81
2023/04/24 08:31:19;;;;;;;4.17;3.77;;;22.10;45.40;;;;;;4913518;29;20469;-79
2023/04/24 08:33:48;;;;;;;4.87;4.33;;;22.20;45.60;;;;;;4912795;29;20496;-80
2023/04/24 08:36:16;;;;;;;4.10;3.80;;;22.20;45.40;;;;;;4914762;29;20556;-79
2023/04/24 08:38:46;;;;;;;4.70;4.20;;;22.30;45.30;;;;;;4915713;29;20448;-79
2023/04/24 08:41:14;;;;;;;3.90;3.50;;;22.20;45.10;;;;;;4908514;29;20468;-79
2023/04/24 08:43:42;;;;;;;3.80;3.60;;;22.30;45.30;;;;;;4919018;29;20516;-80
2023/04/24 08:46:10;;;;;;;4.27;3.87;;;22.30;45.20;;;;;;4918016;29;20451;-79
2023/04/24 08:48:41;;;;;;;4.80;3.83;;;22.30;45.10;;;;;;4913607;29;20459;-80
2023/04/24 08:51:09;;;;;;;4.13;3.83;;;22.20;45.10;;;;;;4909982;29;20477;-80
2023/04/24 08:53:37;;;;;;;4.00;3.60;;;22.20;45.20;;;;;;4912323;29;20463;-81
2023/04/24 08:56:05;;;;;;;3.83;3.53;;;22.20;45.10;;;;;;4916242;29;20496;-81
2023/04/24 08:58:33;;;;;;;4.07;3.70;;;22.20;45.10;;;;;;4913583;29;20456;-78
2023/04/24 09:01:01;;;;;;;3.50;3.20;;;22.20;45.00;;;;;;4917894;29;20573;-77
2023/04/24 09:03:29;;;;;;;4.10;3.70;;;22.20;44.90;;;;;;4919399;29;20459;-80
2023/04/24 09:05:59;;;;;;;3.30;3.10;;;22.20;45.10;;;;;;4913416;29;20540;-80
2023/04/24 09:08:27;;;;;;;3.13;2.97;;;22.10;44.90;;;;;;4914309;29;20539;-77
2023/04/24 09:10:58;;;;;;;4.07;3.10;;;22.10;44.80;;;;;;4921594;29;20560;-79
2023/04/24 09:13:26;;;;;;;4.10;3.70;;;22.10;45.00;;;;;;4924944;29;20495;-80
2023/04/24 09:15:57;;;;;;;4.03;3.60;;;22.10;44.90;;;;;;4913647;29;20468;-81
2023/04/24 09:18:25;;;;;;;3.53;3.33;;;22.10;44.80;;;;;;4918784;29;20422;-79
2023/04/24 09:21:00;;;;;;;3.57;3.27;;;22.10;44.80;;;;;;4920335;29;20465;-79
2023/04/24 09:23:30;;;;;;;5.20;3.47;;;22.10;44.80;;;;;;4918993;29;20492;-78
2023/04/24 09:26:02;;;;;;;3.83;3.20;;;22.10;45.10;;;;;;4921931;29;20516;-79
2023/04/24 09:28:32;;;;;;;3.60;3.30;;;22.10;45.00;;;;;;4923528;29;20461;-78
2023/04/24 09:31:04;;;;;;;6.07;3.67;;;22.00;44.90;;;;;;4914904;29;20845;-78
2023/04/24 09:33:32;;;;;;;3.80;3.60;;;22.10;45.20;;;;;;4921979;29;20499;-77
2023/04/24 09:36:02;;;;;;;4.23;3.83;;;22.00;44.90;;;;;;4916696;29;20499;-78
2023/04/24 09:38:34;;;;;;;3.07;2.87;;;22.00;45.10;;;;;;4919438;29;20447;-78
2023/04/24 09:41:03;;;;;;;4.77;3.30;;;22.10;45.10;;;;;;4918035;29;20472;-77
2023/04/24 09:43:31;;;;;;;3.50;3.20;;;22.10;45.30;;;;;;4920256;29;20531;-77
2023/04/24 09:46:05;;;;;;;5.77;3.67;;;22.10;45.20;;;;;;4919855;29;20505;-76
2023/04/24 09:48:33;;;;;;;4.47;3.70;;;22.10;45.20;;;;;;4914028;29;20447;-78
2023/04/24 09:51:04;;;;;;;4.20;3.50;;;22.10;45.20;;;;;;4919707;29;20526;-78
2023/04/24 09:53:32;;;;;;;3.90;3.43;;;22.10;45.40;;;;;;4922617;29;20536;-79
2023/04/24 09:56:03;;;;;;;4.60;3.30;;;22.10;45.40;;;;;;4917645;29;20490;-77
2023/04/24 09:58:31;;;;;;;3.43;3.23;;;22.10;45.50;;;;;;4920129;29;20457;-78
2023/04/24 10:00:59;;;;;;;3.70;3.40;;;22.10;45.60;;;;;;4920225;29;20476;-78
2023/04/24 10:03:30;;;;;;;3.80;3.50;;;22.10;45.70;;;;;;4920113;29;20540;-77
2023/04/24 10:05:59;;;;;;;4.37;3.97;;;22.10;45.70;;;;;;4915000;29;20456;-75
2023/04/24 10:08:33;;;;;;;4.10;3.70;;;22.10;45.70;;;;;;4921463;29;20527;-77
2023/04/24 10:11:01;;;;;;;5.10;3.97;;;22.10;45.80;;;;;;4913730;29;20891;-78
2023/04/24 10:13:29;;;;;;;3.97;3.67;;;22.10;45.70;;;;;;4918114;29;20455;-79
2023/04/24 10:15:57;;;;;;;3.97;3.67;;;22.20;45.90;;;;;;4908834;29;20481;-78
2023/04/24 10:18:27;;;;;;;4.17;3.53;;;22.20;46.00;;;;;;4921131;29;21033;-78
2023/04/24 10:20:55;;;;;;;4.70;3.97;;;22.10;45.80;;;;;;4922513;29;20542;-77
2023/04/24 10:23:24;;;;;;;3.83;3.40;;;22.20;45.80;;;;;;4919749;29;20484;-78
2023/04/24 10:25:53;;;;;;;4.83;3.80;;;22.20;46.00;;;;;;4917252;29;20446;-78
2023/04/24 10:28:21;;;;;;;3.90;3.50;;;22.20;45.90;;;;;;4919302;29;20450;-78
2023/04/24 10:30:49;;;;;;;8.40;3.83;;;22.20;46.00;;;;;;4913264;29;20495;-77
2023/04/24 10:33:17;;;;;;;4.00;3.67;;;22.20;46.00;;;;;;4917083;29;20445;-76
2023/04/24 10:35:47;;;;;;;4.33;3.47;;;22.20;46.00;;;;;;4916774;29;20440;-78
2023/04/24 10:38:23;;;;;;;3.67;3.37;;;22.30;46.00;;;;;;4917326;29;20525;-79
2023/04/24 10:40:53;;;;;;;4.17;3.73;;;22.30;46.10;;;;;;4906522;29;20568;-75
2023/04/24 10:43:20;;;;;;;3.40;3.10;;;22.30;46.10;;;;;;4918371;29;20479;-77
2023/04/24 10:46:01;;;;;;;3.67;3.37;;;22.30;46.20;;;;;;4913165;29;20520;-77
2023/04/24 10:48:29;;;;;;;3.30;3.03;;;22.20;46.10;;;;;;4915056;29;20456;-82
2023/04/24 10:50:57;;;;;;;3.57;3.27;;;22.20;46.30;;;;;;4919968;29;20472;-82
2023/04/24 10:53:26;;;;;;;3.97;3.57;;;22.20;46.50;;;;;;4923946;28;20437;-83
2023/04/24 10:56:00;;;;;;;8.03;4.13;;;22.10;46.40;;;;;;4910716;29;20450;-80
2023/04/24 10:58:38;;;;;;;3.60;3.40;;;22.10;46.60;;;;;;4910519;29;20447;-82
2023/04/24 11:01:05;;;;;;;3.40;3.20;;;22.10;46.50;;;;;;4917337;29;20509;-80
2023/04/24 11:03:34;;;;;;;3.70;3.33;;;22.10;46.70;;;;;;4911769;29;20431;-82
2023/04/24 11:06:03;;;;;;;3.63;3.33;;;22.10;46.80;;;;;;4915688;29;20544;-82
2023/04/24 11:08:33;;;;;;;3.40;3.10;;;22.10;46.80;;;;;;4920994;29;20546;-83
2023/04/24 11:11:04;;;;;;;5.40;3.53;;;22.10;47.00;;;;;;4910577;29;20484;-80
2023/04/24 11:14:06;;;;;;;5.60;3.43;;;22.10;46.80;;;;;;4919237;29;20479;-81
2023/04/24 11:16:35;;;;;;;7.80;4.37;;;22.10;47.00;;;;;;4918292;29;20488;-78
2023/04/24 11:19:05;;;;;;;14.27;4.70;;;21.70;49.80;;;;;;4918954;29;20449;-78
2023/04/24 11:21:33;;;;;;;8.77;4.43;;;22.00;53.10;;;;;;4922832;29;20455;-79
2023/04/24 11:24:23;;;;;;;11.63;4.20;;;22.30;52.50;;;;;;4912726;29;20449;-78
2023/04/24 11:26:54;;;;;;;3.90;3.40;;;22.70;52.00;;;;;;4906901;29;20452;-79
2023/04/24 11:29:22;;;;;;;12.60;3.90;;;22.90;51.50;;;;;;4916431;29;20535;-78
2023/04/24 11:31:52;;;;;;;4.20;3.30;;;23.10;51.30;;;;;;4916169;29;20479;-78
2023/04/24 11:34:21;;;;;;;4.23;3.83;;;23.30;51.20;;;;;;4915524;29;20480;-77
2023/04/24 11:36:52;;;;;;;11.47;4.10;;;23.40;50.90;;;;;;4916393;29;20572;-77
2023/04/24 11:39:20;;;;;;;10.93;3.43;;;23.50;50.80;;;;;;4913824;29;20468;-80
2023/04/24 11:41:48;;;;;;;6.07;3.20;;;23.60;50.80;;;;;;4907947;29;20469;-79
2023/04/24 11:44:17;;;;;;;3.43;3.13;;;23.70;50.70;;;;;;4915975;29;20472;-79
2023/04/24 11:46:47;;;;;;;5.60;2.97;;;23.80;50.50;;;;;;4922321;29;20437;-79
2023/04/24 11:49:15;;;;;;;3.60;3.30;;;23.90;50.40;;;;;;4915250;29;20455;-79
2023/04/24 11:51:43;;;;;;;4.43;4.03;;;23.90;50.10;;;;;;4916034;29;20468;-80
2023/04/24 11:54:20;;;;;;;5.57;3.30;;;23.90;50.00;;;;;;4909214;29;20468;-78
2023/04/24 11:56:48;;;;;;;10.83;3.53;;;24.00;49.90;;;;;;4914518;29;20464;-79
2023/04/24 11:59:18;;;;;;;8.83;3.80;;;24.00;49.80;;;;;;4915223;29;20453;-81
2023/04/24 12:01:46;;;;;;;6.20;4.13;;;24.10;49.70;;;;;;4915767;29;20472;-80
2023/04/24 12:04:14;;;;;;;10.57;3.70;;;24.10;49.80;;;;;;4920777;29;20439;-80
2023/04/24 12:07:00;;;;;;;8.20;3.90;;;24.10;49.70;;;;;;4919086;29;20472;-81
2023/04/24 12:09:28;;;;;;;7.13;5.07;;;24.10;49.90;;;;;;4913305;29;20528;-81
2023/04/24 12:11:57;;;;;;;9.00;4.17;;;24.00;49.70;;;;;;4910217;29;20480;-81
2023/04/24 12:14:27;;;;;;;13.10;4.50;;;24.00;50.00;;;;;;4911489;29;20424;-77
2023/04/24 12:16:55;;;;;;;11.50;5.10;;;24.00;49.90;;;;;;4917844;29;20483;-80
2023/04/24 12:19:23;;;;;;;15.10;4.90;;;23.90;49.80;;;;;;4914725;29;20494;-80
2023/04/24 12:22:01;;;;;;;17.67;6.23;;;23.90;49.70;;;;;;4915960;29;21005;-81
2023/04/24 12:24:28;;;;;;;9.87;5.60;;;24.00;49.80;;;;;;4935226;29;20500;-80
2023/04/24 12:26:57;;;;;;;9.60;5.27;;;23.90;49.70;;;;;;4932490;29;20445;-80
2023/04/24 12:29:28;;;;;;;12.80;5.90;;;23.90;49.80;;;;;;4920593;29;20441;-81
2023/04/24 12:31:56;;;;;;;16.63;5.23;;;23.90;49.50;;;;;;4919701;29;20488;-80
2023/04/24 12:34:25;;;;;;;9.33;5.90;;;23.90;49.90;;;;;;4918990;29;20445;-81
2023/04/24 12:36:53;;;;;;;13.90;5.47;;;23.90;50.10;;;;;;4919974;29;20423;-80
2023/04/24 12:39:24;;;;;;;18.23;5.60;;;24.00;50.50;;;;;;4921635;29;20453;-84
2023/04/24 12:41:59;;;;;;;10.47;5.80;;;24.00;50.10;;;;;;4925035;29;20443;-85
2023/04/24 12:44:34;;;;;;;12.93;5.80;;;23.80;49.90;;;;;;4926729;29;20486;-82
2023/04/24 12:47:02;;;;;;;10.43;5.90;;;23.70;50.20;;;;;;4927788;29;20465;-82
2023/04/24 12:49:31;;;;;;;16.90;5.70;;;23.40;50.40;;;;;;4928248;29;20453;-83
2023/04/24 12:51:59;;;;;;;17.00;6.10;;;23.20;50.60;;;;;;4928151;29;20438;-84
2023/04/24 12:54:27;;;;;;;10.70;5.77;;;23.10;50.90;;;;;;4928745;29;20520;-83
2023/04/24 12:56:56;;;;;;;13.17;6.20;;;23.00;51.00;;;;;;4928584;29;20447;-84
2023/04/24 12:59:25;;;;;;;11.37;5.40;;;22.90;51.10;;;;;;4928686;29;20536;-83